首页 温蒂汉堡(usWEN)-基本信息

温蒂汉堡(usWEN)-基本信息

日报更新时间:04-20 10:53

周报更新时间:04-18 04:06

行情信息

今开价:22.76

最高价:22.82

成交量:1183725.0

昨收价:22.77

最低价:22.42

最新价:22.54

行情图标
概要信息

中文名称:温蒂汉堡


英文名称:Wendy\'s


行业:服务业


简介:The Wendy's Company是全资子控股公司温迪餐厅有限公司的母公司


电话:1-614-7643100


最新量化综合结论
百科信息
  • 相关网站
  • 百科
  • 员工交易记录
  • 持股信息
  • 领导人信息

温迪国际快餐连锁集团是美国第二大汉堡包快餐连锁店,由美国人戴夫·汤玛斯创立(公司名称取自其次女Melinda Lou Thomas的乳名:Wendy),云狄斯著名的食物包括方形牛肉汉堡包,以及焗脆薯皮。Wendy's自1969年创立以来就快速发展,到了1985年已经有近3000家门店,2012年,温蒂汉堡(Wendy's)取代汉堡王成为快餐汉堡市场的第二大连锁店,截止2018年4月20日,公司在全球范围内共有6,600家加盟和直营餐厅,主要集中在美国、加拿大、墨西哥、新西兰、厄瓜多尔、沙特阿拉伯、印尼和菲律宾。温蒂汉堡在亚洲的发展一直不太顺利,如:1980年进军日本,2009年退出;1980年代以“得意妹”之名首次进军香港,不久后退出,1991年以“云狄斯”名义回归香港,开设十多间分店,于2000年1月3日再次撤出;在台湾市场,公司在1985年即以“温娣汉堡”之名进入,于1999年底,正式撤出台湾。Wendy's Company各地分店:云狄斯现时于加拿大、墨西哥、厄瓜多尔、日本、菲律宾、智利及新西兰均有分店,而昔日还有分店在其它国家和地区,例如台湾、香港。加拿大文迪汉堡第一家加拿大分店于1976年在安大略省的汉密尔顿市开业。 1976年12月,在多伦多开设其第500家分店。台湾公司以「温娣汉堡」之名于1985年进入台湾市场,由「吉盛食品股份有限公司」引进,广告曾经聘请蓝心湄cosplay温娣姊姊,分店曾经作为李安执导的1994年电影《饮食男女》场景之一。 《饮食男女》片中,老朱是圆山大饭店中菜大厨,老朱的小女儿家宁却在温娣汉堡打工,西方与东方饮食文化在老朱家中产生冲击(亦具体而微地暗示当时台湾现况),成为强烈的对比。温娣汉堡后因不敌麦当劳、肯德基等同业竞争,大约于1999年底,在位于台北市民生社区圆环的最后一家分店歇业后,正式撤出台湾。香港云狄斯于1982年首次进军香港,当时名为「得意妹」,不过于1986年撒出。 1991年改以「云狄斯」名义回归香港,开创后受香港人欢迎,全盛时期有十多间分店,但最后于2000年1月3日再次撤出香港。日本温娣汉堡于1980年进军日本,但于2009年退出。 2011年温娣汉堡宣布在日本复出,并于2011年12月27日在东京都表参道开设复出后的第一间门市,更规划将来要在日本开设超过700间门市。南韩温娣汉堡在1984年于三丰百货商场开设第一家南韩分店,全盛时期共有20家,但1998年因引发金融危机而撤出南韩市场。新加坡温娣汉堡在1982年首次进驻新加坡,但因展店缓慢而于1987年关闭在新加坡的2家分店退出新加坡市场;2009年在新加坡重新开张,并计画将来要在新加坡开设35家分店。然而到2015年4月,退出新加坡市场。阿根廷温娣汉堡在1996年首次进驻阿根廷,但因经济危机在2000年撤出阿根廷市场;2011年重返阿根廷市场,由Degasa公司引进, 藉由重返阿根廷以加速回归巴西市场。马来西亚温娣汉堡于1990年代首次进军马来西亚,不久后退出;2008年重返马来西亚,目前在马来西亚拥有14家分店,分别位于吉隆坡、雪兰莪赛城和IPC购物中心、槟城、云顶高原、新山和亚庇。澳洲温娣汉堡于1981年进军澳洲,后因经营不善于1986年将在澳洲的9家分店转让给澳洲的饥饿杰克(汉堡王)公司,退出澳洲市场。俄罗斯温娣汉堡于2010年进军俄罗斯,且原计画在2020年前,要在俄罗斯开设180家分店,但是截至2014年为止却只有开设8家目前其中4家已先关闭,其余4家会在未来几周内停止营业,该公司发言人强调退出俄国市场并非基于政治因素,未来会伺机重返俄罗斯市场。厄瓜多尔温娣汉堡在厄瓜多尔的唯一一间门店位于该国第一大城市瓜亚基尔的市中心区域。印度温娣汉堡于2015年在印度古尔冈开设首家分店,这也是该公司首次于菜单上去除牛肉,并计画将来要在印度开设150家分店。Wendy's Company食物:云狄斯著名的食物包括方形牛肉汉堡包,以及焗脆薯皮。方型汉堡包是汤马士一次在密西根州吃Keepee汉堡包时发明的。温娣有两种汉堡,小的1.78 盎司(50.5 克)和「经典」型4盎司(113.4 克)的。两种都还有单层,双层,三层之分。温娣没有像麦当劳的麦香堡一样或是汉堡王的皇堡之类终极大汉堡;反而用「层」数的选择来取代,顾客还能选择调味香料。原本温娣只有两种鸡肉三明治,炸的和烤的。香鸡三明治开始推出后到1996年开始大受欢迎,并且带动其他三明治的销售,也很容易生产(调味料和面包鸡肉三明治完全一样)。2007年中美国和加拿大温娣开始试验新的早餐菜单,温娣早在1980年代中开始实验各种早餐,但是失败的案例比较多。当美国店面数到达300时温娣的营业范围也早就扩展到早餐,但是都没有全连锁统一的早餐制度直到2005才开始研发实行统一的早餐菜单。1980年代末期到1990初期温娣开始提供「超级自助吧Superbar」,是一种无限吃自助餐。这是由高利润和低利润食物混合成摆在一起的餐台,有三种区块:沙拉区,义大利面热食区有面、炸玉米饼、墨西哥卷、大蒜面包和甜点冷饮区。然而这种自助餐是偏向经济性和大量化,不适合温娣速食高利润的产业导向;1998年时多数分店都停办。

交易日期 交易人 职位 类型 交易份额 价格
2019-06-30 May (Peter W) Director and Beneficial Owner Buy 1299 19.43
2019-06-30 Peltz (Nelson) Director and Beneficial Owner Buy 868 19.43
2019-06-30 Peltz (Matthew H) Director Buy 1003 19.43
2019-06-18 Peltz (Matthew H) Director Buy 105 18.88
2019-06-03 Dolan (Kristin A) Director Buy 6052 --
2019-06-03 Winkleblack (Arthur B) Director Buy 6052 --
2019-06-03 Rothschild (Peter H) Director Buy 6052 --
2019-06-03 Peltz (Nelson) Director and Beneficial Owner Buy 6052 --
2019-06-03 Peltz (Matthew H) Director Buy 6052 --
2019-06-03 May (Peter W) Director and Beneficial Owner Buy 6052 --
2019-06-03 Gilbert Kenneth W Director Buy 6052 --
2019-06-03 Kass (Dennis M) Director Buy 6052 --
2019-06-03 Mathews-Spradlin (Mich J) Director Buy 6052 --
2019-05-14 Wright Robert D Chief Operating Officer Buy 52009 15.36
2019-05-14 Wright Robert D Chief Operating Officer Buy 156013 10.09
2019-05-14 Wright Robert D Chief Operating Officer Sell 208022 18.63
2019-05-13 Wright Robert D Chief Operating Officer Buy 9346 10.09
2019-05-13 Wright Robert D Chief Operating Officer Buy 237425 9.86
2019-05-13 Wright Robert D Chief Operating Officer Sell 246771 18.57
2019-05-12 Wright Robert D Chief Operating Officer Sell 109110 18.58
2019-05-12 Wright Robert D Chief Operating Officer Buy 109110 8.22
2019-05-09 Wright Robert D Chief Operating Officer Sell 126629 18.74
2019-05-01 Plosch (Gunther) Chief Financial Officer Buy 87719 --
2019-05-01 Plosch (Gunther) Chief Financial Officer Buy 5505 --
2019-05-01 Plosch (Gunther) Chief Financial Officer Sell 1644 18.49

机构持股
持有者 持有份额 持股比例 份额变化 变化率 报告日期
Invesco Advisers, Inc. 2950684 1.28% 937931 46.60% 2019-07-31
HHG PLC 5419827 2.35% 98309 1.85% 2019-03-31
Marshall Wace Asset Management Ltd 5526284 2.40% 949742 20.75% 2019-03-31
Wells Fargo Funds Management LLC 8042429 3.49% 72086 0.90% 2019-07-31
BlackRock Fund Advisors 9461165 4.10% -813166 -7.91% 2019-07-31
Wells Fargo & Co 9736670 4.22% 317252 3.37% 2019-03-31
BlackRock Inc 16629074 7.21% -78675 -0.47% 2019-03-31
Vanguard Group Inc 17197256 7.45% -347084 -1.98% 2019-03-31
Trian Fund Management LP 28630629 12.41% -3000000 -9.48% 2019-03-31
Dimensional Fund Advisors, Inc. 5206203 2.26% -128612 -2.41% 2019-03-31
Vanguard Investments Australia Ltd 5126362 2.22% -74 -- 2019-07-31
Janus Capital Management LLC 4959416 2.15% 54823 1.12% 2019-07-31
Two Sigma Advisers, LLC 3128129 1.36% 485300 18.36% 2019-03-31
Goldman Sachs Group Inc 3135822 1.36% -426416 -11.97% 2019-03-31
Horizon Asset Management Inc/ny 3168164 1.37% 3168164 -- 2019-03-31
OppenheimerFunds Inc 3353385 1.45% 25748 0.77% 2019-03-31
Millennium Management LLC 3416422 1.48% -1048138 -23.48% 2019-03-31
Two Sigma Investments LLC 4089084 1.77% 2498527 157.09% 2019-03-31
Dimensional Fund Advisors LP 4110283 1.78% -36119 -0.87% 2019-07-31
State Street Corporation 4680574 2.03% 112938 2.47% 2019-03-31
Amvescap Plc. 5082402 2.20% 647132 14.59% 2018-12-31
Horizon Kinetics LLC 3435188 1.49% -438303 -11.32% 2018-12-31
Geode Capital Management, LLC 3835702 1.66% 2031365 112.58% 2018-12-31
Eminence Capital LLC 8008106 3.47% -4072063 -33.71% 2018-12-31
BlackRock Asset Management Canada Ltd 21480952 9.31% 4967 0.02% 2019-05-31
Citadel Advisors Llc 7574947 3.29% -729233 -8.78% 2018-09-30
Victory Capital Management Inc. 4139476 1.80% -3159155 -43.28% 2018-09-30
OFI Global Asset Management, Inc. 3192314 1.37% -22991 -0.72% 2019-01-31
Fidelity Management & Research Company 3516450 1.51% 232175 7.07% 2018-11-30
Invesco Advisers, Inc 3690863 1.58% -21381 -0.58% 2018-09-30
BlackRock Institutional Trust Company NA 5894730 2.53% -38215 -0.64% 2018-06-30
Wells Capital Management Inc. 9638882 4.13% 35363 0.37% 2018-09-30
State Street Corp 5052804 2.11% -195943 -3.73% 2018-06-30
Melvin Capital Management LP 3200000 1.34% -2809656 -46.75% 2018-06-30
Goldman, Sachs & Co. 2818945 1.18% -116477 -3.97% 2018-06-30
RS Investment Management Co. LLC 2433120 1.02% 222310 10.06% 2018-06-30
Chartwell Investment Partners, LLC 2342275 0.98% 268790 12.96% 2018-06-30
Balyasny Asset Management LLC 3887309 1.62% 3063288 371.75% 2018-03-31
Point72 Asset Management, L.P. 2882776 1.20% 2882776 -- 2017-12-31
State Street Global Markets, LLC 2029638 0.84% -50456 -2.43% 2018-03-31
Renaissance Technologies Corp 2794882 1.16% 1152200 70.14% 2017-12-31
FORT PITT CAPITAL GROUP, LLC 2071787 0.86% 125727 6.46% 2017-12-31
Jennison Associates LLC 1941802 0.81% 18756 0.98% 2017-12-31
Maplelane Capital, LLC 2124501 0.87% 1874501 749.80% 2017-09-30
NORGES BANK 1748763 0.73% 76070 4.55% 2017-12-31
Northern Trust Investments N A 1650265 0.69% -59495 -3.48% 2017-12-31
D. E. Shaw & Co LP 2271225 0.93% -29340 -1.28% 2017-09-30
Kinetics Asset Management Inc 1750587 0.71% -395806 -18.44% 2017-06-30
RE Advisers Corp (DC) 3519000 1.35% -- -- 2016-09-30
Kinetics Asset Management LLC 2377100 0.91% -99300 -4.01% 2016-09-30
Suvretta Capital Management, LLC 2284700 0.87% 2284700 -- 2016-09-30
Managed Asset Portfolios, LLC 1577726 0.60% -29616 -1.84% 2016-09-30
Nelson Peltz 89526604 4.00% 978525782 0.20% 1999-11-30
Edward P. Garden 65177764 4.00% 712392961 0.20% 1999-11-30
Peter W. May 89419779 4.00% 977358184 0.20% 1999-11-30
共同基金持股
持有者 持有份额 持股比例 份额变化 变化率 报告日期
Delaware Sm-Cap Core Eq-UBS 1091071 0.47% 1091071 -- 2019-06-30
SPDR 2075350 0.90% -12459 -0.60% 2019-06-30
Vanguard Extended Market Index Fund 2513055 1.09% -5624 -0.22% 2019-06-30
Vanguard Small Cap Value Index Fund 2924879 1.27% -144874 -4.72% 2019-06-30
Vanguard Small Cap Index 4720466 2.05% -103854 -2.15% 2019-06-30
Janus Henderson Triton Fund 4883102 2.12% -- -- 2019-06-30
Vanguard Total Stock Market Index Fund 5083415 2.20% 175 -- 2019-06-30
iShares Core S&P Mid-Cap ETF 5347504 2.32% 10320 0.19% 2019-07-30
Wells Fargo Special Mid Cap Value Fund 5983200 2.59% -- -- 2019-06-30
Wells Fargo Special Small Cap Value Fund 2047600 0.89% 150000 7.90% 2019-06-30
MFS Mid Cap Value Fund 1987196 0.86% 19983 1.02% 2019-06-30
Invesco Oppenheimer MainStrtMidCp fd 1844190 0.80% -- -- 2019-06-30
Delaware Small Cap Core Fund 1091071 0.47% 1091071 -- 2019-06-30
T. Rowe Price QM US Small-Cap Gr Eq Fd 1106000 0.48% 1106000 -- 2019-06-30
State Street S&P Mid Cap Index Fund 1119991 0.49% -- -- 2019-06-30
Goldman Sachs Small Cap Value Fund 1296372 0.56% 618811 91.33% 2019-06-30
Invesco Small Cap Growth Fund 1303290 0.56% -- -- 2019-06-30
DFA US Small Cap Portfolio 1515754 0.66% -- -- 2019-05-31
iShares S&P Mid-Cap 400 Growth ETF 1574905 0.68% -- -- 2019-07-30
Invesco S&P MidCap Low Volatility ETF 1810501 0.78% 4596 0.25% 2019-07-31
Strategic Advisers 1005850 0.44% 26600 2.72% 2019-05-31
DFA US Core Equity II Fund 860065 0.37% -- -- 2019-05-31
JNL/Invesco Small Cap Growth Fund 875791 0.38% -9968 -1.13% 2019-03-31
Fidelity 876114 0.38% -- -- 2019-05-31
Horizon Core Value - Strategy-UBS 1292380 0.56% -95332 -6.87% 2019-03-31
JPMorgan American IT ORD 895000 0.39% -- -- 2019-04-30
iShares Core S&P US Total Market ETF 5298181 2.30% -- -- 2019-05-30
iShares S&P US Mid-Cap ETF (CAD-Hedged) 5298181 2.30% -- -- 2019-05-30
iShares S&P US Mid-Cap ETF 5298181 2.30% -- -- 2019-05-30
iShares Core MSCI AllCntry Wld exCan ETF 5300241 2.30% -- -- 2019-05-23
Vanguard Small Cap Index Fund 4826467 2.09% 26895 0.56% 2019-04-30
Oppenheimer Main Street Mid Cap Fund 1844190 0.80% -- -- 2019-03-31
DFA US Core Equity 1 Portfolio 757773 0.33% -- -- 2019-01-31
Oppenheimer Main Street Small Cap Fd/VA 703130 0.30% -- -- 2018-12-31
Pax Small Cap Fund 750944 0.32% -50000 -6.24% 2018-12-31
Vanguard Mid Cap Growth 2057255 0.89% -285020 -12.17% 2018-09-30
Invesco Small Cap Equity Fund 695093 0.30% 2399 0.35% 2018-09-30
Victory RS Small Cap Growth Fund 1585400 0.68% 142150 9.85% 2018-06-30
Wells Fargo Special Small Cap Value A 1652800 0.69% 88700 5.67% 2018-07-31
DFA US Core Equity 1 I 736689 0.31% -- -- 2018-07-31
Wells Fargo Special Mid Cap Value Inst 6353300 2.67% 95200 1.52% 2018-07-31
Janus Triton D 4883102 2.04% -- -- 2018-06-30
Vanguard Total Stock Mkt Idx 4759489 2.00% 5520 0.12% 2018-07-31
Vanguard Small Cap Value Index Inv 3022193 1.27% 27181 0.91% 2018-07-31
Vanguard Mid Cap Growth Inv 2342275 0.98% 268790 12.96% 2018-06-30
Vanguard Extended Market Idx Inv 2375021 1.00% 9400 0.40% 2018-07-31
DFA US Small Cap I 1829597 0.77% -331969 -15.36% 2018-07-31
Oppenheimer Main Street Mid Cap A 1686430 0.71% -- -- 2018-07-31
RS Small Cap Growth A 1585400 0.66% 142150 9.85% 2018-06-30
Fidelity Spartan 808017 0.34% 14758 1.86% 2018-07-31
iShares S&P Mid-Cap 400 Growth 800536 0.34% 7917 1.00% 2018-09-12
DFA US Core Equity 2 I 860065 0.36% -- -- 2018-07-31
JNL/Invesco Small Cap Growth B 874469 0.37% 28208 3.33% 2018-06-30
JNL Multi-Manager Small Cap Growth B 890250 0.37% 133340 17.62% 2018-06-30
Pax World Small Cap Institutional 1050944 0.44% 579409 122.88% 2018-06-30
Invesco Small Cap Growth A 1301232 0.54% 7188 0.56% 2018-06-30
Invesco Small Cap Equity A 700853 0.29% -65329 -8.53% 2018-03-31
Oppenheimer Main Street Small Cap VA Svc 871050 0.36% -- -- 2018-05-31
Kinetics Paradigm No Load 876600 0.36% -223000 -20.28% 2017-12-31
RS Partners A 707289 0.29% -- -- 2017-09-30
Janus Contrarian D 5380858 2.19% -3715023 -40.84% 2016-12-31
DFA US Small Cap Value II 2067373 0.84% -425188 -17.06% 2016-12-31
Homestead Small Company Stock 2040260 0.78% -- -- 2016-09-30
DFA US Targeted Value I 1387316 0.56% -199768 -12.59% 2016-12-31
Wells Fargo Small Cap Value A 1350700 0.55% -100900 -6.95% 2016-12-31
DFA Tax-Managed US Targeted Value 1307950 0.53% -- -- 2016-12-31
Janus Triton Fund 9871077 3.60% -- -- 2015-09-30
DFA US Small Cap Value II Portfolio 6447976 2.40% 808569 14.30% 2015-09-30
iShares Core S&P Mid-Cap (AU) 3805065 1.60% 5130 0.10% 2015-11-19
Wells Fargo Advantage Spec Md Cp Val Fd 3620400 1.30% 43100 1.20% 2015-09-30
Kinetics Paradigm Fund 2836800 0.80% -97200 -3.30% 2015-06-30
DFA US Targeted Value Portfolio 2361897 0.90% -- -- 2015-09-30
SPDR® S&P MIDCAP 400 ETF 2269532 0.80% -7809 -0.30% 2015-09-30
Kinetics Small Cap Opportunities Fund 2224400 0.60% -131000 -5.60% 2015-06-30
Homestead Small Company Stock Fund 2040260 0.60% -- -- 2015-06-30
SSgA - S&P Mid-Cap Index Strategy Tr 1798869 0.50% -- -- 2015-06-30
Janus Contrarian Fund 10443542 3.80% -- -- 2015-09-30

Peter William May Mr. Peter W. May is an Independent Director at Mondelez International, Inc., a President & Founding Partner at Trian Fund Management LP, a Chairman at Leni & Peter May Family Foundation, a Chairman at The Mount Sinai Health System, Inc. and a Founding Member at The Laura Rosenberg Foundation, Inc. He is on the Board of Directors at Mondelez International, Inc., The Wendy's Co., Lincoln Center for the Performing Arts, Inc., The Partnership for New York City, The University of Chicago and New York Philharmonic. He Co-Founded Trian Fund Management in November 2005. He serves as the non-executive Vice Chairman of The Wendy's Company. From May 2008 through May 2017, Mr. May served as a director of Tiffany & Co. From April 1993 through June 2007, he served as President, Chief Operating Officer and a director of Triarc Companies, Inc., which during that period of time owned Arby's Restaurant Group, Inc. and the Snapple Beverage Group, as well as other consumer and industrial businesses. He was President and Chief Operating Officer and a director of Triangle Industries, Inc. from 1983 until December 1988, the largest packaging company in the world and a Fortune 100 industrial company, when that company was acquired by Pechiney, S.A., a leading international metals and packaging company. Mr. May received A.B. and M.B.A. degrees from The University of Chicago and is a Certified Public Accountant (inactive). He also holds an Honorary Doctorate in Humane Letters from The Mount Sinai School of Medicine of New York University.
Nelson Peltz Mr. Nelson Peltz is an Independent Director at The Madison Square Garden Co., an Independent Director at Sysco Corp., a Chief Executive Officer & Founding Partner at Trian Fund Management LP, a Chairman at New York Tolerance Center, a Co-Chairman at Simon Wiesenthal Center, Inc., a Director-Overseers Board at Milken Institute, a Director-Overseers Board at Weill Cornell Medical College and a General Partner & Owner at Trian Partners General Partner LLC. He is on the Board of Directors at Procter & Gamble Co., The Madison Square Garden Co., Sysco Corp. and Intrepid Museum Foundation, Inc. He Co-Founded Trian Fund Management in November 2005. He serves as the non-executive Chairman of The Wendy's Company. Mr. Peltz previously served as a director of H. J. Heinz Company from September 2006 to June 2013, Legg Mason, Inc. from October 2009 to December 2014, Ingersoll-Rand plc from August 2012 to June 2014, MSG Networks Inc. from December 2014 to September 2015 and Mondelez International, Inc. from January 2014 to March 2018. From April 1993 through June 2007, he served as Chairman and Chief Executive Officer of Triarc Companies, Inc. which during that period of time owned Arby's Restaurant Group, Inc. and the Snapple Beverage Group, as well as other consumer and industrial businesses. He was Chairman and Chief Executive Officer and a director of Triangle Industries, Inc. from 1983 until December 1988, the largest packaging company in the world and a Fortune 100 industrial company, when that company was acquired by Pechiney, S.A., a leading international metals and packaging company. He began his business career in 1963 when he joined his family food business. Mr. Peltz attended The Wharton School of the University of Pennsylvania.
Joseph A. Levato Joseph A. Levato is on the board of The Wendy's Co. and Manager of Wendy's Restaurants LLC. In the past he held the position of Chief Financial Officer & Senior Vice President of Triangle Industries, Inc. and Chief Financial Officer & Senior Vice President at Trian Group LP.
Michelle J. Mathews-Spradlin Michelle J. Mathews-Spradlin is Member-Executive Board at UCLA School of Theater, Film & Television Equipment and on the board of 7 other companies. She previously was Chief Marketing Officer for Microsoft Corp. She received an undergraduate degree from the University of Brighton.
Kenneth W. Gilbert Founder of RazorFocus, Kenneth W. Gilbert is Chairman at YourBevCo LLC. He is also on the board of The Wendy's Co. He previously was President & Chief Operating Officer at UWG, Inc., Senior Vice President & Director-Client Services at UWG, Inc., Chief Marketing Officer for Voss of Norway ASA, Chief Marketing Officer & Senior Vice President at Snapple Beverage Group, Inc. and Group Account Director at Havas Worldwide New York, Inc. Kenneth W. Gilbert received an undergraduate degree from the University of Connecticut.
Kristin Aigner Dolan Kristin Aigner Dolan founded 605 LLC and Dolan Family Ventures LLC. Currently, she occupies the position of Chief Executive Officer for Dataco Ventures LLC, Chief Executive Officer at 605 LLC and Chief Operating Officer & Director at CSC Holdings LLC. Ms. Dolan is also on the board of Revlon, Inc., AMC Networks, Inc., The Wendy's Co. and The Madison Square Garden Co. In the past Kristin Aigner Dolan occupied the position of Chief Operating Officer & Director at Cablevision Systems Corp., Managing Partner at Dolan Family Ventures LLC, Member-Foundation Board at State University of New York at Albany and Member-National Board at Women in Cable Telecommunications. Ms. Dolan received a graduate degree from Pace University, an undergraduate degree from State University of New York at Albany and a graduate degree from Long Island University.
Peter Howard Rothschild Peter Howard Rothschild founded Daroth Capital LLC and Daroth Capital Advisors LLC. Currently, Mr. Rothschild occupies the position of President & Chief Executive Officer for Daroth Capital Advisors LLC. He is also on the board of The Wendy's Co. and Managing Member at Daroth Capital LLC, Member of The Mount Sinai Medical Center, Inc. and Manager at Wendy's Restaurants LLC. In his past career Mr. Rothschild held the position of Managing Director & Head-Industrial Group at Drexel Burnham Lambert, Inc., Managing Director at Dresdner Kleinwort Leasing, Inc., Chairman at Deerfield Triarc Capital Corp., Chairman of Deerfield Capital Corp., Managing Director & Co-Head-Leveraged Finance at Wasserstein Perella Group, Inc., Director at Deerfield Capital Management LLC and Senior Managing Director at Bear, Stearns & Co., Inc.
Matthew Heffner Peltz Mr. Matthew H. Peltz is a Partner & Senior Analyst at Trian Fund Management LP. He is on the Board of Directors at The Wendy's Co. He has been a member of Trian's Investment Team since January 2008. In addition to his investment responsibilities, he also focuses on environmental, social and governance issues across Trian's portfolio. He has been a director of The Wendy's Company since December 2015, where he serves on its Corporate Social Responsibility, Capital & Investment, and Technology Committees. He previously served as a director (April 2018 through September 2018) and board observer (September 2015 through April 2018) of Pentair plc and was a director of the former parent company of the Arby's restaurant brand, from September 2012 until December 2015. He is also a member of the Board of Hu Master Holdings, LLC. Prior to joining Trian, Mr. Peltz was with Goldman Sachs & Co. from May 2006 to January 2008. During his tenure at Goldman, he worked in the investment bank and subsequently joined Liberty Harbor, an affiliated multi-strategy hedge fund. Mr. Peltz received a B.A. from Yale University.
Emil J. Brolick Mr. Emil J. Brolick is a President & Chief Executive Officer at Wendy's Restaurants LLC. He is on the Board of Directors at The Wendy's Co. Mr. Brolick was previously employed as a President by A&W Restaurants, Inc., a President by Long John Silver's LLC, a Chief Operating & Development Officer by Yum! Brands, Inc., a President & Chief Concept Officer by Taco Bell Corp., a Chairman-Emeritus by Boys & Girls Clubs of America, a Principal by Chrysler Corp., a Principal by Copeland Corp. LLC, a Trustee by Dave Thomas Foundation for Adoption, a Vice President-Marketing & Concept Development by Ponderosa, Inc., a Chairman by The Taco Bell Foundation, Inc., and a Chief Executive Officer by Wendy's International LLC. He received his undergraduate degree from the University of Detroit Mercy and a graduate degree from the University of Detroit Mercy.
Dennis M. Kass Dennis M. Kass is on the board of The Wendy's Co. and Princeton Theological Seminary and Member-Global Executive Board at MIT Sloan School of Management and Director-Global Leadership Council at buildOn, Inc. In the past he occupied the position of Independent Director at Legg Mason, Inc., Chairman & Chief Executive Officer for Jennison Associates LLC, Vice Chairman & Chief Fiduciary Officer at JPMorgan Fleming Asset Management (USA), Inc. and Vice President at Goldman Sachs & Co. LLC. Mr. Kass received an undergraduate degree from Principia College and a graduate degree from Massachusetts Institute of Technology.
Arthur B. Winkleblack Arthur B. Winkleblack is on the board of Church & Dwight Co., Inc., Performance Food Group Co. and The Wendy's Co. In his past career he was Chief Financial Officer & Executive Vice President for Round Hill Investments LLC, Chief Operating Officer-Perform.com at Indigo Capital LLC, Principal at PepsiCo, Inc., Principal at Six Flags Entertainment Corp., Chief Executive Officer at Freeride.com, Chief Operating Officer for Perform, Inc., Chief Financial Officer & Vice President for H.J. Heinz Finance Co., Chief Financial Officer & Executive Vice President of H.J. Heinz Co. and Chief Financial Officer & Vice President at Honeywell International LLC. He received an undergraduate degree from the University of California, Los Angeles and an MBA from The Wharton School of the University of Pennsylvania.
Peter Howard Rothschild Peter Howard Rothschild founded Daroth Capital LLC and Daroth Capital Advisors LLC. Currently, Mr. Rothschild occupies the position of President & Chief Executive Officer for Daroth Capital Advisors LLC. He is also on the board of The Wendy's Co. and Managing Member at Daroth Capital LLC, Member of The Mount Sinai Medical Center, Inc. and Manager at Wendy's Restaurants LLC. In his past career Mr. Rothschild held the position of Managing Director & Head-Industrial Group at Drexel Burnham Lambert, Inc., Managing Director at Dresdner Kleinwort Leasing, Inc., Chairman at Deerfield Triarc Capital Corp., Chairman of Deerfield Capital Corp., Managing Director & Co-Head-Leveraged Finance at Wasserstein Perella Group, Inc., Director at Deerfield Capital Management LLC and Senior Managing Director at Bear, Stearns & Co., Inc.
Todd A. Penegor Todd A. Penegor occupies the position of President, Chief Executive Officer & Director at The Wendy's Co. and Chief Executive Officer for Wendy's Restaurants LLC (a subsidiary of The Wendy's Co.). Mr. Penegor is also on the board of Dave Thomas Foundation for Adoption. In the past Todd A. Penegor was President-US Snacks at Kellogg Co. Chief Financial Officer & Vice President at Kellogg Snacks, Chief Financial Officer & Vice President at Kellogg USA LLC and Chief Financial Officer & Vice President for Kellogg Europe Co. Ltd. (which are all subsidiaries of Kellogg Co.) and Manager-Strategy, Mergers & Acquisitions at Ford Motor Co. He received an undergraduate degree and an MBA from Michigan State University.
E. J. Wunsch Presently, E. J. Wunsch holds the position of Secretary & General Counsel at The Wendy's Co. E. J. Wunsch is also Member of The Order of the Coif. In the past E. J. Wunsch occupied the position of Associate of Taft Stettinius & Hollister LLP and Associate General Counsel at Procter & Gamble Co. E. J. Wunsch received an undergraduate degree from Miami University and a graduate degree from Northwestern University School of Law.
Todd A. Penegor Todd A. Penegor occupies the position of President, Chief Executive Officer & Director at The Wendy's Co. and Chief Executive Officer for Wendy's Restaurants LLC (a subsidiary of The Wendy's Co.). Mr. Penegor is also on the board of Dave Thomas Foundation for Adoption. In the past Todd A. Penegor was President-US Snacks at Kellogg Co. Chief Financial Officer & Vice President at Kellogg Snacks, Chief Financial Officer & Vice President at Kellogg USA LLC and Chief Financial Officer & Vice President for Kellogg Europe Co. Ltd. (which are all subsidiaries of Kellogg Co.) and Manager-Strategy, Mergers & Acquisitions at Ford Motor Co. He received an undergraduate degree and an MBA from Michigan State University.
Dana William Klein Mr. Dana W. Klein is Senior VP-Corporate & Securities Counsel at The Wendy's Co. and Senior VP-Corporate & Securities Counsel at Wendy's Restaurants LLC. Mr. Klein was previously employed as Senior Vice President by Wendy's International LLC.
Matthew Heffner Peltz Mr. Matthew H. Peltz is a Partner & Senior Analyst at Trian Fund Management LP. He is on the Board of Directors at The Wendy's Co. He has been a member of Trian's Investment Team since January 2008. In addition to his investment responsibilities, he also focuses on environmental, social and governance issues across Trian's portfolio. He has been a director of The Wendy's Company since December 2015, where he serves on its Corporate Social Responsibility, Capital & Investment, and Technology Committees. He previously served as a director (April 2018 through September 2018) and board observer (September 2015 through April 2018) of Pentair plc and was a director of the former parent company of the Arby's restaurant brand, from September 2012 until December 2015. He is also a member of the Board of Hu Master Holdings, LLC. Prior to joining Trian, Mr. Peltz was with Goldman Sachs & Co. from May 2006 to January 2008. During his tenure at Goldman, he worked in the investment bank and subsequently joined Liberty Harbor, an affiliated multi-strategy hedge fund. Mr. Peltz received a B.A. from Yale University.
Peter Howard Rothschild Peter Howard Rothschild founded Daroth Capital LLC and Daroth Capital Advisors LLC. Currently, Mr. Rothschild occupies the position of President & Chief Executive Officer for Daroth Capital Advisors LLC. He is also on the board of The Wendy's Co. and Managing Member at Daroth Capital LLC, Member of The Mount Sinai Medical Center, Inc. and Manager at Wendy's Restaurants LLC. In his past career Mr. Rothschild held the position of Managing Director & Head-Industrial Group at Drexel Burnham Lambert, Inc., Managing Director at Dresdner Kleinwort Leasing, Inc., Chairman at Deerfield Triarc Capital Corp., Chairman of Deerfield Capital Corp., Managing Director & Co-Head-Leveraged Finance at Wasserstein Perella Group, Inc., Director at Deerfield Capital Management LLC and Senior Managing Director at Bear, Stearns & Co., Inc.
E. J. Wunsch Presently, E. J. Wunsch holds the position of Secretary & General Counsel at The Wendy's Co. E. J. Wunsch is also Member of The Order of the Coif. In the past E. J. Wunsch occupied the position of Associate of Taft Stettinius & Hollister LLP and Associate General Counsel at Procter & Gamble Co. E. J. Wunsch received an undergraduate degree from Miami University and a graduate degree from Northwestern University School of Law.
Robert D. Wright Mr. Robert D. Wright is a Chief Operating Officer & Executive Vice President at The Wendy's Co. He is on the Board of Directors at Dave Thomas Foundation for Adoption. Mr. Wright was previously employed as a President & Chief Operating Officer by Gosh Enterprises, Inc., an Executive Vice President-Franchise Operations by Checkers Drive-In Restaurants, Inc., a President by CE Restaurant Holdings LLC, and a Vice President-Operations & Training Integration by Wendy�0�9€�6�4s International, Inc. He received his undergraduate degree from Letourneau University.
Abigail E. Pringle Abigail E. Pringle is on the board of Ohio Chamber of Commerce and President-International at The Wendy's Co.
Kurt A. Kane Presently, Kurt A. Kane occupies the position of President-US & Chief Commercial Officer at The Wendy's Co. Mr. Kane is also on the board of Dave Thomas Foundation for Adoption. Mr. Kane previously held the position of Brand Manager at Molson Coors Brewing Co., Assistant Brand Manager at Procter & Gamble Co., Marketing Director-New Products at Frito-Lay, Inc. and Global Chief Marketing & Food Innovation Officer at Pizza Hut LLC. He received an undergraduate degree from US Military Academy and an MBA from The University of Texas.
Gunther Plosch Presently, Gunther Plosch holds the position of Chief Financial Officer for The Wendy's Co. In the past Mr. Plosch was Associate Director at Procter & Gamble Co. and Vice President-Global Business Services at Kellogg Co. Mr. Plosch received an undergraduate degree from Johannes Kepler Universit�0�1¤t Linz.
E. J. Wunsch Presently, E. J. Wunsch holds the position of Secretary & General Counsel at The Wendy's Co. E. J. Wunsch is also Member of The Order of the Coif. In the past E. J. Wunsch occupied the position of Associate of Taft Stettinius & Hollister LLP and Associate General Counsel at Procter & Gamble Co. E. J. Wunsch received an undergraduate degree from Miami University and a graduate degree from Northwestern University School of Law.
Leigh A. Burnside Leigh A. Burnside is Chief Accounting Officer at The Wendy's Co. In her past career she held the position of Manager-Internal Audit & Financial Reporting at L Brands, Inc. and External Reporting Manager at Borden, Inc. She received an undergraduate degree from the University of Maryland.
M. Coley O'Brien Presently, M. Coley O'Brien is Chief People Officer at The Wendy's Co. He previously was Director-Retail Training at Sears Holdings Corp. He received a graduate degree from Indiana University.
Greg Lemenchick Presently, Greg Lemenchick holds the position of Director-Investor Relations at The Wendy's Co.

量化对比

全部评论 3

  • 【麦当劳回应快餐包装中检出致癌物质:在中国使用的食品包装材料中没有添加PFASs,完全符合国家相关标准】近日,环保组织的一份报告称,在麦当劳、汉堡王及Wendy's等主要快餐店的食品包装中,发现有毒物质PFAS。麦当劳回应称,食品安全始终是麦当劳的重中之重。麦当劳在中国使用的食品包装材料中没有添加PFASs(全氟和多氟化合物),完全符合国家相关标准。请大家放心使用。(每经网)

  • 【麦当劳回应快餐包装中检出致癌物质:在中国使用的食品包装材料中没有添加PFASs,完全符合国家相关标准】近日,环保组织的一份报告称,在麦当劳、汉堡王及Wendy's等主要快餐店的食品包装中,发现有毒物质PFAS。麦当劳回应称,食品安全始终是麦当劳的重中之重。麦当劳在中国使用的食品包装材料中没有添加PFASs(全氟和多氟化合物),完全符合国家相关标准。请大家放心使用。(每经网)

  • 【给特朗普大选送钱?美国网友抵制温迪汉堡店】被美媒爆出给特朗普大选捐款超40万美金,“Wendy's完蛋”登上推特热搜,Wendy's是美国第三大的快餐连锁集团。

阿布量化公众号二维码 abu_quant 扫一扫关注阿布量化

热门推荐